sensor_id;sensor_type;location;lat;lon;timestamp;P1;durP1;ratioP1;P2;durP2;ratioP2
3341;SDS011;1684;50.748;6.154;2022-08-19T00:02:19;18.17;;;13.77;;
3341;SDS011;1684;50.748;6.154;2022-08-19T00:04:47;16.80;;;13.97;;
3341;SDS011;1684;50.748;6.154;2022-08-19T00:07:19;20.60;;;15.47;;
3341;SDS011;1684;50.748;6.154;2022-08-19T00:09:47;18.57;;;15.47;;
3341;SDS011;1684;50.748;6.154;2022-08-19T00:12:15;19.33;;;16.33;;
3341;SDS011;1684;50.748;6.154;2022-08-19T00:14:45;18.00;;;16.07;;
3341;SDS011;1684;50.748;6.154;2022-08-19T00:17:13;19.87;;;14.50;;
3341;SDS011;1684;50.748;6.154;2022-08-19T00:19:41;18.73;;;15.70;;
3341;SDS011;1684;50.748;6.154;2022-08-19T00:22:10;17.03;;;14.47;;
3341;SDS011;1684;50.748;6.154;2022-08-19T00:24:38;22.27;;;15.50;;
3341;SDS011;1684;50.748;6.154;2022-08-19T00:27:15;21.77;;;15.40;;
3341;SDS011;1684;50.748;6.154;2022-08-19T00:29:53;19.20;;;16.03;;
3341;SDS011;1684;50.748;6.154;2022-08-19T00:32:21;19.83;;;15.70;;
3341;SDS011;1684;50.748;6.154;2022-08-19T00:34:52;17.07;;;14.50;;
3341;SDS011;1684;50.748;6.154;2022-08-19T00:37:21;17.23;;;14.40;;
3341;SDS011;1684;50.748;6.154;2022-08-19T00:39:49;19.17;;;15.70;;
3341;SDS011;1684;50.748;6.154;2022-08-19T00:42:18;21.73;;;17.33;;
3341;SDS011;1684;50.748;6.154;2022-08-19T00:44:47;17.37;;;15.33;;
3341;SDS011;1684;50.748;6.154;2022-08-19T00:47:17;18.17;;;15.47;;
3341;SDS011;1684;50.748;6.154;2022-08-19T00:49:47;18.60;;;16.07;;
3341;SDS011;1684;50.748;6.154;2022-08-19T00:52:18;23.10;;;19.30;;
3341;SDS011;1684;50.748;6.154;2022-08-19T00:54:48;20.90;;;16.53;;
3341;SDS011;1684;50.748;6.154;2022-08-19T00:57:18;18.63;;;15.97;;
3341;SDS011;1684;50.748;6.154;2022-08-19T00:59:51;19.97;;;15.57;;
3341;SDS011;1684;50.748;6.154;2022-08-19T01:02:30;21.03;;;15.97;;
3341;SDS011;1684;50.748;6.154;2022-08-19T01:04:59;18.80;;;14.90;;
3341;SDS011;1684;50.748;6.154;2022-08-19T01:07:28;20.20;;;17.80;;
3341;SDS011;1684;50.748;6.154;2022-08-19T01:10:03;19.60;;;15.80;;
3341;SDS011;1684;50.748;6.154;2022-08-19T01:12:32;20.60;;;17.47;;
3341;SDS011;1684;50.748;6.154;2022-08-19T01:15:00;22.27;;;16.77;;
3341;SDS011;1684;50.748;6.154;2022-08-19T01:17:30;18.00;;;15.30;;
3341;SDS011;1684;50.748;6.154;2022-08-19T01:19:58;20.37;;;16.10;;
3341;SDS011;1684;50.748;6.154;2022-08-19T01:22:29;21.27;;;18.07;;
3341;SDS011;1684;50.748;6.154;2022-08-19T01:24:59;19.87;;;16.57;;
3341;SDS011;1684;50.748;6.154;2022-08-19T01:27:36;19.87;;;16.97;;
3341;SDS011;1684;50.748;6.154;2022-08-19T01:30:10;22.43;;;18.17;;
3341;SDS011;1684;50.748;6.154;2022-08-19T01:32:39;22.77;;;18.70;;
3341;SDS011;1684;50.748;6.154;2022-08-19T01:35:10;19.10;;;16.90;;
3341;SDS011;1684;50.748;6.154;2022-08-19T01:37:43;21.83;;;17.63;;
3341;SDS011;1684;50.748;6.154;2022-08-19T01:40:11;19.77;;;16.33;;
3341;SDS011;1684;50.748;6.154;2022-08-19T01:42:40;20.13;;;17.50;;
3341;SDS011;1684;50.748;6.154;2022-08-19T01:45:09;19.70;;;16.30;;
3341;SDS011;1684;50.748;6.154;2022-08-19T01:47:38;21.90;;;17.30;;
3341;SDS011;1684;50.748;6.154;2022-08-19T01:50:07;20.93;;;18.03;;
3341;SDS011;1684;50.748;6.154;2022-08-19T01:52:36;23.70;;;18.23;;
3341;SDS011;1684;50.748;6.154;2022-08-19T01:55:07;20.20;;;17.90;;
3341;SDS011;1684;50.748;6.154;2022-08-19T01:57:36;23.47;;;18.93;;
3341;SDS011;1684;50.748;6.154;2022-08-19T02:00:06;26.33;;;20.30;;
3341;SDS011;1684;50.748;6.154;2022-08-19T02:02:35;23.50;;;18.33;;
3341;SDS011;1684;50.748;6.154;2022-08-19T02:05:03;24.40;;;19.10;;
3341;SDS011;1684;50.748;6.154;2022-08-19T02:07:36;30.77;;;20.50;;
3341;SDS011;1684;50.748;6.154;2022-08-19T02:10:09;26.27;;;20.70;;
3341;SDS011;1684;50.748;6.154;2022-08-19T02:12:41;19.60;;;16.80;;
3341;SDS011;1684;50.748;6.154;2022-08-19T02:15:10;25.30;;;21.60;;
3341;SDS011;1684;50.748;6.154;2022-08-19T02:17:39;27.83;;;21.43;;
3341;SDS011;1684;50.748;6.154;2022-08-19T02:20:08;26.60;;;21.87;;
3341;SDS011;1684;50.748;6.154;2022-08-19T02:22:36;26.80;;;22.43;;
3341;SDS011;1684;50.748;6.154;2022-08-19T02:25:09;27.57;;;20.70;;
3341;SDS011;1684;50.748;6.154;2022-08-19T02:27:38;29.73;;;23.53;;
3341;SDS011;1684;50.748;6.154;2022-08-19T02:30:07;28.83;;;22.73;;
3341;SDS011;1684;50.748;6.154;2022-08-19T02:32:39;27.90;;;23.53;;
3341;SDS011;1684;50.748;6.154;2022-08-19T02:35:10;29.87;;;23.73;;
3341;SDS011;1684;50.748;6.154;2022-08-19T02:37:38;31.57;;;22.83;;
3341;SDS011;1684;50.748;6.154;2022-08-19T02:40:25;28.53;;;23.30;;
3341;SDS011;1684;50.748;6.154;2022-08-19T02:42:54;31.03;;;24.50;;
3341;SDS011;1684;50.748;6.154;2022-08-19T02:45:22;29.90;;;24.80;;
3341;SDS011;1684;50.748;6.154;2022-08-19T02:47:51;31.23;;;24.07;;
3341;SDS011;1684;50.748;6.154;2022-08-19T02:50:19;31.03;;;25.47;;
3341;SDS011;1684;50.748;6.154;2022-08-19T02:52:47;30.10;;;24.03;;
3341;SDS011;1684;50.748;6.154;2022-08-19T02:55:16;33.33;;;25.70;;
3341;SDS011;1684;50.748;6.154;2022-08-19T02:57:46;33.40;;;26.43;;
3341;SDS011;1684;50.748;6.154;2022-08-19T03:00:15;33.23;;;26.80;;
3341;SDS011;1684;50.748;6.154;2022-08-19T03:02:44;38.47;;;28.73;;
3341;SDS011;1684;50.748;6.154;2022-08-19T03:05:13;38.30;;;27.57;;
3341;SDS011;1684;50.748;6.154;2022-08-19T03:07:41;32.70;;;26.20;;
3341;SDS011;1684;50.748;6.154;2022-08-19T03:10:09;40.30;;;29.27;;
3341;SDS011;1684;50.748;6.154;2022-08-19T03:12:38;36.47;;;27.80;;
3341;SDS011;1684;50.748;6.154;2022-08-19T03:15:08;37.17;;;27.37;;
3341;SDS011;1684;50.748;6.154;2022-08-19T03:17:37;36.57;;;27.17;;
3341;SDS011;1684;50.748;6.154;2022-08-19T03:20:07;40.33;;;28.20;;
3341;SDS011;1684;50.748;6.154;2022-08-19T03:22:36;36.27;;;27.30;;
3341;SDS011;1684;50.748;6.154;2022-08-19T03:25:04;35.90;;;26.80;;
3341;SDS011;1684;50.748;6.154;2022-08-19T03:27:32;30.30;;;23.60;;
3341;SDS011;1684;50.748;6.154;2022-08-19T03:30:01;27.80;;;21.10;;
3341;SDS011;1684;50.748;6.154;2022-08-19T03:32:33;36.00;;;27.10;;
3341;SDS011;1684;50.748;6.154;2022-08-19T03:35:10;40.50;;;28.37;;
3341;SDS011;1684;50.748;6.154;2022-08-19T03:37:38;39.50;;;28.13;;
3341;SDS011;1684;50.748;6.154;2022-08-19T03:40:07;33.90;;;26.17;;
3341;SDS011;1684;50.748;6.154;2022-08-19T03:42:41;33.33;;;27.37;;
3341;SDS011;1684;50.748;6.154;2022-08-19T03:45:14;38.47;;;29.23;;
3341;SDS011;1684;50.748;6.154;2022-08-19T03:47:44;36.50;;;27.40;;
3341;SDS011;1684;50.748;6.154;2022-08-19T03:50:14;33.37;;;26.60;;
3341;SDS011;1684;50.748;6.154;2022-08-19T03:52:42;35.30;;;27.70;;
3341;SDS011;1684;50.748;6.154;2022-08-19T03:55:13;36.43;;;27.63;;
3341;SDS011;1684;50.748;6.154;2022-08-19T03:57:41;36.57;;;28.70;;
3341;SDS011;1684;50.748;6.154;2022-08-19T04:00:11;34.93;;;28.57;;
3341;SDS011;1684;50.748;6.154;2022-08-19T04:02:40;34.40;;;28.10;;
3341;SDS011;1684;50.748;6.154;2022-08-19T04:05:27;40.30;;;29.70;;
3341;SDS011;1684;50.748;6.154;2022-08-19T04:07:55;40.93;;;28.20;;
3341;SDS011;1684;50.748;6.154;2022-08-19T04:10:25;40.10;;;30.30;;
3341;SDS011;1684;50.748;6.154;2022-08-19T04:12:53;39.27;;;29.63;;
3341;SDS011;1684;50.748;6.154;2022-08-19T04:15:22;44.87;;;31.37;;
3341;SDS011;1684;50.748;6.154;2022-08-19T04:17:50;43.47;;;33.07;;
3341;SDS011;1684;50.748;6.154;2022-08-19T04:20:19;39.37;;;30.80;;
3341;SDS011;1684;50.748;6.154;2022-08-19T04:22:48;43.07;;;32.97;;
3341;SDS011;1684;50.748;6.154;2022-08-19T04:25:17;40.23;;;30.30;;
3341;SDS011;1684;50.748;6.154;2022-08-19T04:27:45;45.00;;;32.13;;
3341;SDS011;1684;50.748;6.154;2022-08-19T04:30:14;42.93;;;32.20;;
3341;SDS011;1684;50.748;6.154;2022-08-19T04:32:43;43.37;;;32.00;;
3341;SDS011;1684;50.748;6.154;2022-08-19T04:35:12;44.93;;;32.30;;
3341;SDS011;1684;50.748;6.154;2022-08-19T04:37:43;44.40;;;30.80;;
3341;SDS011;1684;50.748;6.154;2022-08-19T04:40:13;45.93;;;32.57;;
3341;SDS011;1684;50.748;6.154;2022-08-19T04:43:01;48.70;;;34.67;;
3341;SDS011;1684;50.748;6.154;2022-08-19T04:45:30;47.77;;;34.17;;
3341;SDS011;1684;50.748;6.154;2022-08-19T04:48:09;49.73;;;34.10;;
3341;SDS011;1684;50.748;6.154;2022-08-19T04:50:53;47.63;;;33.27;;
3341;SDS011;1684;50.748;6.154;2022-08-19T04:53:23;47.00;;;34.13;;
3341;SDS011;1684;50.748;6.154;2022-08-19T04:56:05;46.83;;;32.60;;
3341;SDS011;1684;50.748;6.154;2022-08-19T04:58:35;51.63;;;35.47;;
3341;SDS011;1684;50.748;6.154;2022-08-19T05:01:03;43.67;;;31.37;;
3341;SDS011;1684;50.748;6.154;2022-08-19T05:03:32;47.13;;;33.00;;
3341;SDS011;1684;50.748;6.154;2022-08-19T05:06:04;45.33;;;33.63;;
3341;SDS011;1684;50.748;6.154;2022-08-19T05:08:34;46.33;;;31.73;;
3341;SDS011;1684;50.748;6.154;2022-08-19T05:11:08;45.83;;;33.50;;
3341;SDS011;1684;50.748;6.154;2022-08-19T05:13:39;46.13;;;32.80;;
3341;SDS011;1684;50.748;6.154;2022-08-19T05:16:08;48.30;;;34.70;;
3341;SDS011;1684;50.748;6.154;2022-08-19T05:18:37;47.50;;;31.33;;
3341;SDS011;1684;50.748;6.154;2022-08-19T05:21:22;45.40;;;32.27;;
3341;SDS011;1684;50.748;6.154;2022-08-19T05:24:08;45.33;;;32.50;;
3341;SDS011;1684;50.748;6.154;2022-08-19T05:26:39;55.13;;;35.97;;
3341;SDS011;1684;50.748;6.154;2022-08-19T05:29:08;50.77;;;33.07;;
3341;SDS011;1684;50.748;6.154;2022-08-19T05:31:37;49.53;;;35.10;;
3341;SDS011;1684;50.748;6.154;2022-08-19T05:34:07;49.70;;;34.20;;
3341;SDS011;1684;50.748;6.154;2022-08-19T05:36:46;45.90;;;32.70;;
3341;SDS011;1684;50.748;6.154;2022-08-19T05:39:15;55.73;;;35.07;;
3341;SDS011;1684;50.748;6.154;2022-08-19T05:41:46;50.07;;;34.40;;
3341;SDS011;1684;50.748;6.154;2022-08-19T05:44:15;54.00;;;35.83;;
3341;SDS011;1684;50.748;6.154;2022-08-19T05:46:44;51.07;;;36.27;;
3341;SDS011;1684;50.748;6.154;2022-08-19T05:49:14;54.63;;;38.77;;
3341;SDS011;1684;50.748;6.154;2022-08-19T05:51:42;58.27;;;37.73;;
3341;SDS011;1684;50.748;6.154;2022-08-19T05:54:11;57.73;;;38.57;;
3341;SDS011;1684;50.748;6.154;2022-08-19T05:56:39;58.83;;;39.70;;
3341;SDS011;1684;50.748;6.154;2022-08-19T05:59:09;57.13;;;39.40;;
3341;SDS011;1684;50.748;6.154;2022-08-19T06:01:39;59.63;;;38.87;;
3341;SDS011;1684;50.748;6.154;2022-08-19T06:04:08;68.10;;;43.50;;
3341;SDS011;1684;50.748;6.154;2022-08-19T06:06:36;64.27;;;39.97;;
3341;SDS011;1684;50.748;6.154;2022-08-19T06:09:06;75.10;;;44.60;;
3341;SDS011;1684;50.748;6.154;2022-08-19T06:11:36;72.27;;;45.30;;
3341;SDS011;1684;50.748;6.154;2022-08-19T06:14:06;81.33;;;45.57;;
3341;SDS011;1684;50.748;6.154;2022-08-19T06:16:43;77.13;;;49.30;;
3341;SDS011;1684;50.748;6.154;2022-08-19T06:19:13;91.07;;;47.70;;
3341;SDS011;1684;50.748;6.154;2022-08-19T06:21:42;82.30;;;47.43;;
3341;SDS011;1684;50.748;6.154;2022-08-19T06:24:12;91.47;;;51.87;;
3341;SDS011;1684;50.748;6.154;2022-08-19T06:26:41;95.97;;;50.30;;
3341;SDS011;1684;50.748;6.154;2022-08-19T06:29:10;109.93;;;56.47;;
3341;SDS011;1684;50.748;6.154;2022-08-19T06:31:51;114.80;;;58.67;;
3341;SDS011;1684;50.748;6.154;2022-08-19T06:34:19;113.57;;;52.53;;
3341;SDS011;1684;50.748;6.154;2022-08-19T06:36:49;115.60;;;59.13;;
3341;SDS011;1684;50.748;6.154;2022-08-19T06:39:19;113.07;;;54.13;;
3341;SDS011;1684;50.748;6.154;2022-08-19T06:41:49;117.70;;;58.97;;
3341;SDS011;1684;50.748;6.154;2022-08-19T06:44:22;106.70;;;54.77;;
3341;SDS011;1684;50.748;6.154;2022-08-19T06:46:53;103.83;;;53.67;;
3341;SDS011;1684;50.748;6.154;2022-08-19T06:49:21;83.27;;;47.00;;
3341;SDS011;1684;50.748;6.154;2022-08-19T06:51:50;93.93;;;50.20;;
3341;SDS011;1684;50.748;6.154;2022-08-19T06:54:19;82.67;;;45.10;;
3341;SDS011;1684;50.748;6.154;2022-08-19T06:56:48;76.83;;;44.07;;
3341;SDS011;1684;50.748;6.154;2022-08-19T06:59:18;80.40;;;46.30;;
3341;SDS011;1684;50.748;6.154;2022-08-19T07:01:47;90.07;;;43.37;;
3341;SDS011;1684;50.748;6.154;2022-08-19T07:04:17;80.47;;;46.90;;
3341;SDS011;1684;50.748;6.154;2022-08-19T07:06:46;76.70;;;45.83;;
3341;SDS011;1684;50.748;6.154;2022-08-19T07:09:20;69.50;;;39.30;;
3341;SDS011;1684;50.748;6.154;2022-08-19T07:11:50;73.40;;;41.60;;
3341;SDS011;1684;50.748;6.154;2022-08-19T07:14:20;74.70;;;41.30;;
3341;SDS011;1684;50.748;6.154;2022-08-19T07:16:49;57.77;;;34.50;;
3341;SDS011;1684;50.748;6.154;2022-08-19T07:19:19;55.70;;;34.37;;
3341;SDS011;1684;50.748;6.154;2022-08-19T07:21:48;54.33;;;31.47;;
3341;SDS011;1684;50.748;6.154;2022-08-19T07:24:19;53.47;;;35.03;;
3341;SDS011;1684;50.748;6.154;2022-08-19T07:26:50;57.37;;;33.60;;
3341;SDS011;1684;50.748;6.154;2022-08-19T07:29:19;53.30;;;31.60;;
3341;SDS011;1684;50.748;6.154;2022-08-19T07:31:50;57.80;;;36.37;;
3341;SDS011;1684;50.748;6.154;2022-08-19T07:34:23;58.30;;;35.77;;
3341;SDS011;1684;50.748;6.154;2022-08-19T07:36:52;67.80;;;39.00;;
3341;SDS011;1684;50.748;6.154;2022-08-19T07:39:22;76.23;;;43.37;;
3341;SDS011;1684;50.748;6.154;2022-08-19T07:41:50;64.00;;;35.23;;
3341;SDS011;1684;50.748;6.154;2022-08-19T07:44:18;66.87;;;37.97;;
3341;SDS011;1684;50.748;6.154;2022-08-19T07:46:48;76.03;;;41.10;;
3341;SDS011;1684;50.748;6.154;2022-08-19T07:49:18;78.47;;;44.73;;
3341;SDS011;1684;50.748;6.154;2022-08-19T07:51:49;73.60;;;43.17;;
3341;SDS011;1684;50.748;6.154;2022-08-19T07:54:19;66.27;;;41.57;;
3341;SDS011;1684;50.748;6.154;2022-08-19T07:56:47;75.77;;;43.10;;
3341;SDS011;1684;50.748;6.154;2022-08-19T07:59:17;80.30;;;44.27;;
3341;SDS011;1684;50.748;6.154;2022-08-19T08:01:46;85.33;;;47.10;;
3341;SDS011;1684;50.748;6.154;2022-08-19T08:04:16;81.90;;;47.63;;
3341;SDS011;1684;50.748;6.154;2022-08-19T08:07:04;78.17;;;47.47;;
3341;SDS011;1684;50.748;6.154;2022-08-19T08:09:57;84.60;;;48.20;;
3341;SDS011;1684;50.748;6.154;2022-08-19T08:12:29;77.23;;;44.37;;
3341;SDS011;1684;50.748;6.154;2022-08-19T08:15:02;53.63;;;34.30;;
3341;SDS011;1684;50.748;6.154;2022-08-19T08:17:33;72.27;;;43.30;;
3341;SDS011;1684;50.748;6.154;2022-08-19T08:20:17;62.43;;;41.60;;
3341;SDS011;1684;50.748;6.154;2022-08-19T08:22:47;72.13;;;44.83;;
3341;SDS011;1684;50.748;6.154;2022-08-19T08:25:33;61.67;;;37.30;;
3341;SDS011;1684;50.748;6.154;2022-08-19T08:28:02;61.90;;;40.07;;
3341;SDS011;1684;50.748;6.154;2022-08-19T08:30:31;68.33;;;40.60;;
3341;SDS011;1684;50.748;6.154;2022-08-19T08:33:02;59.17;;;37.50;;
3341;SDS011;1684;50.748;6.154;2022-08-19T08:35:30;69.07;;;41.93;;
3341;SDS011;1684;50.748;6.154;2022-08-19T08:38:01;64.23;;;40.43;;
3341;SDS011;1684;50.748;6.154;2022-08-19T08:40:30;76.50;;;44.63;;
3341;SDS011;1684;50.748;6.154;2022-08-19T08:43:02;56.20;;;38.10;;
3341;SDS011;1684;50.748;6.154;2022-08-19T08:45:38;66.10;;;43.53;;
3341;SDS011;1684;50.748;6.154;2022-08-19T08:48:12;69.47;;;42.93;;
3341;SDS011;1684;50.748;6.154;2022-08-19T08:50:49;50.03;;;35.03;;
3341;SDS011;1684;50.748;6.154;2022-08-19T08:53:20;64.50;;;41.67;;
3341;SDS011;1684;50.748;6.154;2022-08-19T08:55:55;58.63;;;40.13;;
3341;SDS011;1684;50.748;6.154;2022-08-19T08:58:25;62.83;;;40.40;;
3341;SDS011;1684;50.748;6.154;2022-08-19T09:00:54;67.33;;;40.60;;
3341;SDS011;1684;50.748;6.154;2022-08-19T09:03:24;54.67;;;40.13;;
3341;SDS011;1684;50.748;6.154;2022-08-19T09:05:59;57.03;;;40.10;;
3341;SDS011;1684;50.748;6.154;2022-08-19T09:08:33;64.97;;;43.70;;
3341;SDS011;1684;50.748;6.154;2022-08-19T09:11:10;59.97;;;41.83;;
3341;SDS011;1684;50.748;6.154;2022-08-19T09:14:02;61.17;;;40.37;;
3341;SDS011;1684;50.748;6.154;2022-08-19T09:16:54;57.20;;;36.57;;
3341;SDS011;1684;50.748;6.154;2022-08-19T09:19:22;58.83;;;40.67;;
3341;SDS011;1684;50.748;6.154;2022-08-19T09:21:54;65.10;;;41.70;;
3341;SDS011;1684;50.748;6.154;2022-08-19T09:24:24;63.60;;;41.17;;
3341;SDS011;1684;50.748;6.154;2022-08-19T09:26:56;56.27;;;34.67;;
3341;SDS011;1684;50.748;6.154;2022-08-19T09:29:24;55.90;;;36.60;;
3341;SDS011;1684;50.748;6.154;2022-08-19T09:31:53;54.10;;;35.10;;
3341;SDS011;1684;50.748;6.154;2022-08-19T09:34:21;58.23;;;36.27;;
3341;SDS011;1684;50.748;6.154;2022-08-19T09:36:49;48.63;;;32.53;;
3341;SDS011;1684;50.748;6.154;2022-08-19T09:39:20;52.47;;;35.10;;
3341;SDS011;1684;50.748;6.154;2022-08-19T09:41:50;49.00;;;33.07;;
3341;SDS011;1684;50.748;6.154;2022-08-19T09:44:19;53.03;;;35.30;;
3341;SDS011;1684;50.748;6.154;2022-08-19T09:46:48;47.97;;;32.90;;
3341;SDS011;1684;50.748;6.154;2022-08-19T09:49:17;43.30;;;30.37;;
3341;SDS011;1684;50.748;6.154;2022-08-19T09:51:46;57.73;;;36.27;;
3341;SDS011;1684;50.748;6.154;2022-08-19T09:54:17;52.73;;;36.27;;
3341;SDS011;1684;50.748;6.154;2022-08-19T09:56:51;53.30;;;36.30;;
3341;SDS011;1684;50.748;6.154;2022-08-19T09:59:20;47.57;;;33.40;;
3341;SDS011;1684;50.748;6.154;2022-08-19T10:01:48;52.77;;;34.20;;
3341;SDS011;1684;50.748;6.154;2022-08-19T10:04:18;50.37;;;32.30;;
3341;SDS011;1684;50.748;6.154;2022-08-19T10:06:48;46.77;;;30.97;;
3341;SDS011;1684;50.748;6.154;2022-08-19T10:09:20;46.73;;;29.90;;
3341;SDS011;1684;50.748;6.154;2022-08-19T10:12:01;47.17;;;32.23;;
3341;SDS011;1684;50.748;6.154;2022-08-19T10:14:31;46.73;;;31.13;;
3341;SDS011;1684;50.748;6.154;2022-08-19T10:17:00;39.27;;;28.60;;
3341;SDS011;1684;50.748;6.154;2022-08-19T10:19:45;43.03;;;29.90;;
3341;SDS011;1684;50.748;6.154;2022-08-19T10:22:21;45.33;;;28.83;;
3341;SDS011;1684;50.748;6.154;2022-08-19T10:24:51;37.00;;;26.57;;
3341;SDS011;1684;50.748;6.154;2022-08-19T10:27:20;43.73;;;29.17;;
3341;SDS011;1684;50.748;6.154;2022-08-19T10:29:51;39.80;;;28.83;;
3341;SDS011;1684;50.748;6.154;2022-08-19T10:32:20;43.60;;;27.47;;
3341;SDS011;1684;50.748;6.154;2022-08-19T10:34:59;37.03;;;25.40;;
3341;SDS011;1684;50.748;6.154;2022-08-19T10:37:31;37.10;;;23.83;;
3341;SDS011;1684;50.748;6.154;2022-08-19T10:40:00;37.00;;;23.60;;
3341;SDS011;1684;50.748;6.154;2022-08-19T10:42:30;44.23;;;30.33;;
3341;SDS011;1684;50.748;6.154;2022-08-19T10:44:58;29.00;;;19.80;;
3341;SDS011;1684;50.748;6.154;2022-08-19T10:47:30;31.80;;;22.50;;
3341;SDS011;1684;50.748;6.154;2022-08-19T10:49:58;29.60;;;19.07;;
3341;SDS011;1684;50.748;6.154;2022-08-19T10:52:46;30.10;;;20.70;;
3341;SDS011;1684;50.748;6.154;2022-08-19T10:55:17;27.33;;;20.23;;
3341;SDS011;1684;50.748;6.154;2022-08-19T10:58:06;31.87;;;21.03;;
3341;SDS011;1684;50.748;6.154;2022-08-19T11:00:37;27.87;;;19.40;;
3341;SDS011;1684;50.748;6.154;2022-08-19T11:03:06;29.40;;;20.00;;
3341;SDS011;1684;50.748;6.154;2022-08-19T11:05:35;32.67;;;21.87;;
3341;SDS011;1684;50.748;6.154;2022-08-19T11:08:05;31.40;;;21.27;;
3341;SDS011;1684;50.748;6.154;2022-08-19T11:10:48;34.77;;;22.57;;
3341;SDS011;1684;50.748;6.154;2022-08-19T11:13:18;34.43;;;22.93;;
3341;SDS011;1684;50.748;6.154;2022-08-19T11:15:46;30.03;;;21.27;;
3341;SDS011;1684;50.748;6.154;2022-08-19T11:18:14;29.77;;;21.10;;
3341;SDS011;1684;50.748;6.154;2022-08-19T11:20:43;35.07;;;23.23;;
3341;SDS011;1684;50.748;6.154;2022-08-19T11:23:12;37.60;;;23.93;;
3341;SDS011;1684;50.748;6.154;2022-08-19T11:25:42;33.83;;;21.80;;
3341;SDS011;1684;50.748;6.154;2022-08-19T11:28:11;32.30;;;23.40;;
3341;SDS011;1684;50.748;6.154;2022-08-19T11:30:41;34.20;;;23.10;;
3341;SDS011;1684;50.748;6.154;2022-08-19T11:33:09;28.17;;;19.53;;
3341;SDS011;1684;50.748;6.154;2022-08-19T11:35:38;32.47;;;20.80;;
3341;SDS011;1684;50.748;6.154;2022-08-19T11:38:07;29.63;;;21.37;;
3341;SDS011;1684;50.748;6.154;2022-08-19T11:40:35;38.10;;;25.47;;
3341;SDS011;1684;50.748;6.154;2022-08-19T11:43:03;32.63;;;23.93;;
3341;SDS011;1684;50.748;6.154;2022-08-19T11:45:32;36.63;;;26.23;;
3341;SDS011;1684;50.748;6.154;2022-08-19T11:48:02;35.10;;;23.60;;
3341;SDS011;1684;50.748;6.154;2022-08-19T11:50:30;24.20;;;15.87;;
3341;SDS011;1684;50.748;6.154;2022-08-19T11:52:58;38.50;;;24.07;;
3341;SDS011;1684;50.748;6.154;2022-08-19T11:55:27;31.50;;;21.93;;
3341;SDS011;1684;50.748;6.154;2022-08-19T11:57:55;25.20;;;16.00;;
3341;SDS011;1684;50.748;6.154;2022-08-19T12:00:24;37.10;;;26.10;;
3341;SDS011;1684;50.748;6.154;2022-08-19T12:02:52;23.73;;;16.07;;
3341;SDS011;1684;50.748;6.154;2022-08-19T12:05:22;30.00;;;20.70;;
3341;SDS011;1684;50.748;6.154;2022-08-19T12:07:50;22.80;;;18.47;;
3341;SDS011;1684;50.748;6.154;2022-08-19T12:10:20;23.63;;;16.40;;
3341;SDS011;1684;50.748;6.154;2022-08-19T12:12:51;24.60;;;17.43;;
3341;SDS011;1684;50.748;6.154;2022-08-19T12:15:24;24.03;;;18.87;;
3341;SDS011;1684;50.748;6.154;2022-08-19T12:18:02;23.57;;;15.43;;
3341;SDS011;1684;50.748;6.154;2022-08-19T12:20:33;21.17;;;16.13;;
3341;SDS011;1684;50.748;6.154;2022-08-19T12:23:02;22.30;;;16.30;;
3341;SDS011;1684;50.748;6.154;2022-08-19T12:25:30;24.20;;;17.80;;
3341;SDS011;1684;50.748;6.154;2022-08-19T12:28:00;18.70;;;13.73;;
3341;SDS011;1684;50.748;6.154;2022-08-19T12:30:30;16.50;;;12.73;;
3341;SDS011;1684;50.748;6.154;2022-08-19T12:32:58;16.30;;;12.53;;
3341;SDS011;1684;50.748;6.154;2022-08-19T12:35:26;15.30;;;11.30;;
3341;SDS011;1684;50.748;6.154;2022-08-19T12:37:57;13.67;;;11.57;;
3341;SDS011;1684;50.748;6.154;2022-08-19T12:40:28;16.97;;;10.90;;
3341;SDS011;1684;50.748;6.154;2022-08-19T12:42:56;14.97;;;11.50;;
3341;SDS011;1684;50.748;6.154;2022-08-19T12:45:25;17.23;;;12.17;;
3341;SDS011;1684;50.748;6.154;2022-08-19T12:47:53;16.93;;;10.60;;
3341;SDS011;1684;50.748;6.154;2022-08-19T12:50:22;10.07;;;8.23;;
3341;SDS011;1684;50.748;6.154;2022-08-19T12:52:50;11.37;;;8.77;;
3341;SDS011;1684;50.748;6.154;2022-08-19T12:55:20;11.37;;;7.50;;
3341;SDS011;1684;50.748;6.154;2022-08-19T12:57:48;12.40;;;7.03;;
3341;SDS011;1684;50.748;6.154;2022-08-19T13:00:17;9.20;;;7.07;;
3341;SDS011;1684;50.748;6.154;2022-08-19T13:02:47;7.73;;;6.07;;
3341;SDS011;1684;50.748;6.154;2022-08-19T13:05:17;8.93;;;6.90;;
3341;SDS011;1684;50.748;6.154;2022-08-19T13:07:48;12.17;;;7.03;;
3341;SDS011;1684;50.748;6.154;2022-08-19T13:10:18;8.97;;;7.10;;
3341;SDS011;1684;50.748;6.154;2022-08-19T13:12:48;8.13;;;6.87;;
3341;SDS011;1684;50.748;6.154;2022-08-19T13:15:18;10.63;;;5.60;;
3341;SDS011;1684;50.748;6.154;2022-08-19T13:17:50;7.30;;;6.60;;
3341;SDS011;1684;50.748;6.154;2022-08-19T13:20:19;6.77;;;5.50;;
3341;SDS011;1684;50.748;6.154;2022-08-19T13:22:48;7.00;;;6.30;;
3341;SDS011;1684;50.748;6.154;2022-08-19T13:25:16;7.60;;;5.23;;
3341;SDS011;1684;50.748;6.154;2022-08-19T13:27:46;9.30;;;5.80;;
3341;SDS011;1684;50.748;6.154;2022-08-19T13:30:16;7.50;;;5.43;;
3341;SDS011;1684;50.748;6.154;2022-08-19T13:32:59;8.37;;;5.27;;
3341;SDS011;1684;50.748;6.154;2022-08-19T13:35:43;5.50;;;3.77;;
3341;SDS011;1684;50.748;6.154;2022-08-19T13:38:11;7.63;;;4.80;;
3341;SDS011;1684;50.748;6.154;2022-08-19T13:40:40;4.27;;;3.50;;
3341;SDS011;1684;50.748;6.154;2022-08-19T13:43:09;6.43;;;5.07;;
3341;SDS011;1684;50.748;6.154;2022-08-19T13:45:49;5.90;;;4.33;;
3341;SDS011;1684;50.748;6.154;2022-08-19T13:48:22;5.60;;;3.87;;
3341;SDS011;1684;50.748;6.154;2022-08-19T13:50:52;4.47;;;3.60;;
3341;SDS011;1684;50.748;6.154;2022-08-19T13:53:20;4.67;;;3.00;;
3341;SDS011;1684;50.748;6.154;2022-08-19T13:55:49;4.57;;;3.00;;
3341;SDS011;1684;50.748;6.154;2022-08-19T13:58:22;6.10;;;4.20;;
3341;SDS011;1684;50.748;6.154;2022-08-19T14:00:52;4.20;;;3.23;;
3341;SDS011;1684;50.748;6.154;2022-08-19T14:03:20;5.70;;;3.67;;
3341;SDS011;1684;50.748;6.154;2022-08-19T14:05:49;5.50;;;3.50;;
3341;SDS011;1684;50.748;6.154;2022-08-19T14:08:18;6.00;;;2.93;;
3341;SDS011;1684;50.748;6.154;2022-08-19T14:10:46;4.47;;;3.60;;
3341;SDS011;1684;50.748;6.154;2022-08-19T14:13:15;4.83;;;3.60;;
3341;SDS011;1684;50.748;6.154;2022-08-19T14:15:44;5.07;;;3.10;;
3341;SDS011;1684;50.748;6.154;2022-08-19T14:18:15;5.70;;;4.10;;
3341;SDS011;1684;50.748;6.154;2022-08-19T14:20:43;5.30;;;4.03;;
3341;SDS011;1684;50.748;6.154;2022-08-19T14:23:11;4.37;;;3.40;;
3341;SDS011;1684;50.748;6.154;2022-08-19T14:25:40;5.53;;;4.97;;
3341;SDS011;1684;50.748;6.154;2022-08-19T14:28:08;4.73;;;3.97;;
3341;SDS011;1684;50.748;6.154;2022-08-19T14:30:36;5.40;;;4.87;;
3341;SDS011;1684;50.748;6.154;2022-08-19T14:33:05;6.70;;;4.30;;
3341;SDS011;1684;50.748;6.154;2022-08-19T14:35:36;5.80;;;4.70;;
3341;SDS011;1684;50.748;6.154;2022-08-19T14:38:05;5.07;;;4.57;;
3341;SDS011;1684;50.748;6.154;2022-08-19T14:40:34;6.60;;;4.60;;
3341;SDS011;1684;50.748;6.154;2022-08-19T14:43:03;8.17;;;5.00;;
3341;SDS011;1684;50.748;6.154;2022-08-19T14:45:32;7.50;;;5.70;;
3341;SDS011;1684;50.748;6.154;2022-08-19T14:48:02;5.80;;;4.80;;
3341;SDS011;1684;50.748;6.154;2022-08-19T14:50:30;5.03;;;3.80;;
3341;SDS011;1684;50.748;6.154;2022-08-19T14:53:00;5.47;;;4.17;;
3341;SDS011;1684;50.748;6.154;2022-08-19T14:55:40;7.40;;;4.50;;
3341;SDS011;1684;50.748;6.154;2022-08-19T14:58:09;4.90;;;4.00;;
3341;SDS011;1684;50.748;6.154;2022-08-19T15:00:55;8.53;;;4.20;;
3341;SDS011;1684;50.748;6.154;2022-08-19T15:03:23;5.23;;;4.47;;
3341;SDS011;1684;50.748;6.154;2022-08-19T15:05:52;9.87;;;4.80;;
3341;SDS011;1684;50.748;6.154;2022-08-19T15:08:24;4.67;;;3.80;;
3341;SDS011;1684;50.748;6.154;2022-08-19T15:10:52;5.10;;;3.73;;
3341;SDS011;1684;50.748;6.154;2022-08-19T15:13:21;7.37;;;4.53;;